createdAt,value
2022-11-05T00:00:58.180Z,85.62
2022-11-05T00:03:43.168Z,84.89
2022-11-05T00:06:29.345Z,84.87
2022-11-05T00:09:18.737Z,84.94
2022-11-05T00:12:03.578Z,84.95
2022-11-05T00:14:48.432Z,84.68
2022-11-05T00:17:14.883Z,84.18
2022-11-05T00:19:41.344Z,83.42
2022-11-05T00:22:26.165Z,84.74
2022-11-05T00:25:11.032Z,84.13
2022-11-05T00:27:37.450Z,84.53
2022-11-05T00:30:07.099Z,85.43
2022-11-05T00:32:33.789Z,84.76
2022-11-05T00:35:00.500Z,84.27
2022-11-05T00:37:28.210Z,83.52
2022-11-05T00:39:54.678Z,84.37
2022-11-05T00:42:39.600Z,83.84
2022-11-05T00:45:07.025Z,83.87
2022-11-05T00:47:52.405Z,84.67
2022-11-05T00:50:21.045Z,84.77
2022-11-05T00:52:55.539Z,84.42
2022-11-05T00:55:29.563Z,84.54
2022-11-05T00:57:57.435Z,83.83
2022-11-05T01:00:26.230Z,83.37
2022-11-05T01:02:52.953Z,83.54
2022-11-05T01:05:19.884Z,84.12
2022-11-05T01:07:46.399Z,84.31
2022-11-05T01:10:12.951Z,85.83
2022-11-05T01:12:39.668Z,85.33
2022-11-05T01:15:06.677Z,85.55
2022-11-05T01:17:33.129Z,85.80
2022-11-05T01:19:59.636Z,86.35
2022-11-05T01:22:26.171Z,85.40
2022-11-05T01:24:52.653Z,84.94
2022-11-05T01:27:19.091Z,85.77
2022-11-05T01:29:45.559Z,85.07
2022-11-05T01:32:12.051Z,84.91
2022-11-05T01:34:38.487Z,84.38
2022-11-05T01:37:05.174Z,84.59
2022-11-05T01:39:31.658Z,84.23
2022-11-05T01:41:58.816Z,84.90
2022-11-05T01:48:43.551Z,85.26
2022-11-05T01:51:13.880Z,84.90
2022-11-05T01:54:10.183Z,85.07
2022-11-05T01:56:53.060Z,85.56
2022-11-05T01:59:25.861Z,85.62
2022-11-05T02:01:54.555Z,85.28
2022-11-05T02:04:33.021Z,84.64
2022-11-05T02:07:02.039Z,84.97
2022-11-05T02:09:46.386Z,84.21
2022-11-05T02:12:14.287Z,84.37
2022-11-05T02:14:40.764Z,84.93
2022-11-05T02:17:16.220Z,84.41
2022-11-05T02:20:07.100Z,84.28
2022-11-05T02:22:51.303Z,84.51
2022-11-05T02:25:39.549Z,84.63
2022-11-05T02:28:26.549Z,84.61
2022-11-05T02:31:04.654Z,85.30
2022-11-05T02:33:45.841Z,85.64
2022-11-05T02:36:25.350Z,84.69
2022-11-05T02:39:00.925Z,85.00
2022-11-05T02:41:38.101Z,84.36
2022-11-05T02:44:26.825Z,84.44
2022-11-05T02:47:12.877Z,85.09
2022-11-05T02:50:11.290Z,85.21
2022-11-05T02:52:42.390Z,85.17
2022-11-05T02:55:27.614Z,84.88
2022-11-05T02:57:54.526Z,84.56
2022-11-05T03:00:49.808Z,85.13
2022-11-05T03:03:51.428Z,84.99
2022-11-05T03:06:42.342Z,84.71
2022-11-05T03:09:50.545Z,85.58
2022-11-05T03:12:35.509Z,84.73
2022-11-05T03:15:27.341Z,85.64
2022-11-05T03:18:22.669Z,85.79
2022-11-05T03:21:19.896Z,86.49
2022-11-05T03:24:14.786Z,86.25
2022-11-05T03:26:50.683Z,85.27
2022-11-05T03:29:23.103Z,85.74
2022-11-05T03:31:52.385Z,85.84
2022-11-05T03:34:24.838Z,86.31
2022-11-05T03:36:55.670Z,85.37
2022-11-05T03:39:28.772Z,86.03
2022-11-05T03:41:57.731Z,84.85
2022-11-05T03:44:29.380Z,84.63
2022-11-05T03:47:02.346Z,84.41
2022-11-05T03:49:45.508Z,84.67
2022-11-05T03:52:18.276Z,84.65
2022-11-05T03:54:46.543Z,84.68
2022-11-05T03:57:19.622Z,85.00
2022-11-05T03:59:49.165Z,84.90
2022-11-05T04:02:18.763Z,84.88
2022-11-05T04:04:46.755Z,84.35
2022-11-05T04:07:31.985Z,84.22
2022-11-05T04:10:17.284Z,84.19
2022-11-05T04:13:02.382Z,84.29
2022-11-05T04:15:51.866Z,84.48
2022-11-05T04:18:18.376Z,84.72
2022-11-05T04:21:03.637Z,85.03
2022-11-05T04:23:48.549Z,84.55
2022-11-05T04:26:15.004Z,83.88
2022-11-05T04:29:03.833Z,84.06
2022-11-05T04:31:34.188Z,84.35
2022-11-05T04:34:00.787Z,84.05
2022-11-05T04:36:27.333Z,84.05
2022-11-05T04:38:53.746Z,84.73
2022-11-05T04:41:20.160Z,83.86
2022-11-05T04:43:46.667Z,84.00
2022-11-05T04:46:13.089Z,84.10
2022-11-05T04:48:39.648Z,84.54
2022-11-05T04:51:06.275Z,84.11
2022-11-05T04:53:32.854Z,84.09
2022-11-05T04:56:14.788Z,83.39
2022-11-05T04:58:41.971Z,83.61
2022-11-05T05:01:13.507Z,84.50
2022-11-05T05:03:40.224Z,84.21
2022-11-05T05:06:07.081Z,84.11
2022-11-05T05:08:33.880Z,83.88
2022-11-05T05:11:04.899Z,84.34
2022-11-05T05:13:31.756Z,84.00
2022-11-05T05:15:58.736Z,83.79
2022-11-05T05:18:26.737Z,84.51
2022-11-05T05:21:16.484Z,84.64
2022-11-05T05:23:43.038Z,84.50
2022-11-05T05:26:09.740Z,83.99
2022-11-05T05:28:36.191Z,84.82
2022-11-05T05:31:02.693Z,85.12
2022-11-05T05:33:29.179Z,84.92
2022-11-05T05:35:59.699Z,85.05
2022-11-05T05:38:26.153Z,84.86
2022-11-05T05:40:57.091Z,85.09
2022-11-05T05:43:23.510Z,85.30
2022-11-05T05:45:49.933Z,84.74
2022-11-05T05:48:16.342Z,85.19
2022-11-05T05:50:42.757Z,83.90
2022-11-05T05:53:09.491Z,83.80
2022-11-05T05:55:36.052Z,83.47
2022-11-05T05:58:02.528Z,83.87
2022-11-05T06:00:29.126Z,84.57
2022-11-05T06:02:56.505Z,84.06
2022-11-05T06:05:22.974Z,85.13
2022-11-05T06:07:58.650Z,84.87
2022-11-05T06:10:25.708Z,84.63
2022-11-05T06:12:52.202Z,84.62
2022-11-05T06:15:18.624Z,84.58
2022-11-05T06:17:45.279Z,84.74
2022-11-05T06:20:14.775Z,84.84
2022-11-05T06:22:41.299Z,84.69
2022-11-05T06:25:08.752Z,83.58
2022-11-05T06:27:36.778Z,83.71
2022-11-05T06:30:04.879Z,84.96
2022-11-05T06:32:31.352Z,84.96
2022-11-05T06:34:57.844Z,85.13
2022-11-05T06:37:24.335Z,85.30
2022-11-05T06:39:50.762Z,85.54
2022-11-05T06:42:18.788Z,85.05
2022-11-05T06:44:45.863Z,85.25
2022-11-05T06:47:12.342Z,85.32
2022-11-05T06:49:38.751Z,84.13
2022-11-05T06:52:05.237Z,84.35
2022-11-05T06:54:31.680Z,84.51
2022-11-05T06:56:58.084Z,85.64
2022-11-05T06:59:24.508Z,85.05
2022-11-05T07:01:51.029Z,84.94
2022-11-05T07:04:17.506Z,84.90
2022-11-05T07:06:43.929Z,84.73
2022-11-05T07:09:10.355Z,84.69
2022-11-05T07:11:36.790Z,84.53
2022-11-05T07:14:03.316Z,85.14
2022-11-05T07:16:29.804Z,84.40
2022-11-05T07:18:56.279Z,85.09
2022-11-05T07:21:22.726Z,85.18
2022-11-05T07:23:49.181Z,85.26
2022-11-05T07:26:15.701Z,84.86
2022-11-05T07:28:42.159Z,84.94
2022-11-05T07:31:08.594Z,84.95
2022-11-05T07:33:36.652Z,84.18
2022-11-05T07:36:03.602Z,84.51
2022-11-05T07:38:30.608Z,84.27
2022-11-05T07:41:00.158Z,84.86
2022-11-05T07:43:26.662Z,84.90
2022-11-05T07:45:53.146Z,84.88
2022-11-05T07:48:19.628Z,84.74
2022-11-05T07:50:46.080Z,85.21
2022-11-05T07:53:14.432Z,85.03
2022-11-05T07:55:42.092Z,85.18
2022-11-05T07:58:10.363Z,85.19
2022-11-05T08:00:36.895Z,85.12
2022-11-05T08:03:16.331Z,84.27
2022-11-05T08:05:46.148Z,84.18
2022-11-05T08:08:18.022Z,84.03
2022-11-05T08:10:44.856Z,83.90
2022-11-05T08:13:13.244Z,84.05
2022-11-05T08:15:40.740Z,83.52
2022-11-05T08:18:15.662Z,83.48
2022-11-05T08:20:43.545Z,84.59
2022-11-05T08:23:10.814Z,84.34
2022-11-05T08:25:37.936Z,84.02
2022-11-05T08:28:07.806Z,84.40
2022-11-05T08:30:35.366Z,83.70
2022-11-05T08:33:08.174Z,83.76
2022-11-05T08:35:36.185Z,84.04
2022-11-05T08:38:05.033Z,83.52
2022-11-05T08:40:35.553Z,83.34
2022-11-05T08:43:03.840Z,83.91
2022-11-05T08:45:31.019Z,83.36
2022-11-05T08:48:07.995Z,83.90
2022-11-05T08:50:35.049Z,82.85
2022-11-05T08:53:01.679Z,83.05
2022-11-05T08:55:28.519Z,83.42
2022-11-05T08:58:03.631Z,83.11
2022-11-05T09:00:33.211Z,83.00
2022-11-05T09:03:01.077Z,83.45
2022-11-05T09:05:29.203Z,83.92
2022-11-05T09:08:00.828Z,83.61
2022-11-05T09:10:28.494Z,83.78
2022-11-05T09:12:55.064Z,82.98
2022-11-05T09:15:23.106Z,82.96
2022-11-05T09:17:49.691Z,83.16
2022-11-05T09:20:16.360Z,82.74
2022-11-05T09:22:43.617Z,82.57
2022-11-05T09:25:10.558Z,82.87
2022-11-05T09:27:37.379Z,82.96
2022-11-05T09:30:05.036Z,82.45
2022-11-05T09:32:32.421Z,82.65
2022-11-05T09:35:01.056Z,82.27
2022-11-05T09:37:28.556Z,82.06
2022-11-05T09:39:55.152Z,82.50
2022-11-05T09:42:26.536Z,82.32
2022-11-05T09:44:59.417Z,81.92
2022-11-05T09:47:39.786Z,81.36
2022-11-05T09:50:16.077Z,81.73
2022-11-05T09:52:42.752Z,81.58
2022-11-05T09:55:27.779Z,81.30
2022-11-05T09:58:00.617Z,81.24
2022-11-05T10:00:29.151Z,80.96
2022-11-05T10:03:04.086Z,81.32
2022-11-05T10:05:33.463Z,80.99
2022-11-05T10:08:23.599Z,80.80
2022-11-05T10:10:55.002Z,80.29
2022-11-05T10:13:42.658Z,80.30
2022-11-05T10:16:25.948Z,80.15
2022-11-05T10:18:59.135Z,79.68
2022-11-05T10:21:51.473Z,79.52
2022-11-05T10:24:20.115Z,78.76
2022-11-05T10:26:49.245Z,78.71
2022-11-05T10:29:25.826Z,79.06
2022-11-05T10:31:56.656Z,79.16
2022-11-05T10:34:28.721Z,79.11
2022-11-05T10:36:55.295Z,78.41
2022-11-05T10:39:23.360Z,78.58
2022-11-05T10:42:14.464Z,78.96
2022-11-05T10:44:52.451Z,78.80
2022-11-05T10:47:56.341Z,77.89
2022-11-05T10:50:30.887Z,77.99
2022-11-05T10:53:06.797Z,77.79
2022-11-05T10:55:38.577Z,77.82
2022-11-05T10:58:17.046Z,77.78
2022-11-05T11:00:45.752Z,77.43
2022-11-05T11:03:45.858Z,77.91
2022-11-05T11:06:27.666Z,77.97
2022-11-05T11:08:57.899Z,76.35
2022-11-05T11:11:38.731Z,76.97
2022-11-05T11:14:22.213Z,76.63
2022-11-05T11:16:51.188Z,78.79
2022-11-05T11:19:23.655Z,78.85
2022-11-05T11:22:05.403Z,78.64
2022-11-05T11:24:45.172Z,77.64
2022-11-05T11:27:17.124Z,77.30
2022-11-05T11:29:49.577Z,77.23
2022-11-05T11:32:19.335Z,76.76
2022-11-05T11:34:51.034Z,77.52
2022-11-05T11:37:24.156Z,76.79
2022-11-05T11:39:56.644Z,77.16
2022-11-05T11:42:35.855Z,77.71
2022-11-05T11:45:17.392Z,77.26
2022-11-05T11:47:46.716Z,76.34
2022-11-05T11:50:31.364Z,77.09
2022-11-05T11:53:19.664Z,75.97
2022-11-05T11:55:59.817Z,76.75
2022-11-05T11:58:44.490Z,78.38
2022-11-05T12:01:26.310Z,76.23
2022-11-05T12:04:28.814Z,78.88
2022-11-05T12:07:20.276Z,79.63
2022-11-05T12:09:56.016Z,79.33
2022-11-05T12:12:34.344Z,79.39
2022-11-05T12:15:24.487Z,78.88
2022-11-05T12:18:01.919Z,80.25
2022-11-05T12:20:40.702Z,79.13
2022-11-05T12:23:44.398Z,79.22
2022-11-05T12:26:26.202Z,79.90
2022-11-05T12:29:18.753Z,77.90
2022-11-05T12:32:04.197Z,77.09
2022-11-05T12:34:46.652Z,77.25
2022-11-05T12:37:51.694Z,76.80
2022-11-05T12:40:39.220Z,77.53
2022-11-05T12:43:24.103Z,77.23
2022-11-05T12:46:05.822Z,78.27
2022-11-05T12:48:53.816Z,77.51
2022-11-05T12:51:32.533Z,77.28
2022-11-05T12:57:52.207Z,77.00
2022-11-05T13:04:30.202Z,72.68
2022-11-05T13:07:58.025Z,71.27
2022-11-05T13:11:10.297Z,69.51
2022-11-05T13:13:42.782Z,70.08
2022-11-05T13:16:19.424Z,71.51
2022-11-05T13:18:56.964Z,72.21
2022-11-05T13:21:26.211Z,73.14
2022-11-05T13:24:04.005Z,72.72
2022-11-05T13:26:39.824Z,73.69
2022-11-05T13:29:17.972Z,75.33
2022-11-05T13:31:53.230Z,74.81
2022-11-05T13:34:19.829Z,73.62
2022-11-05T13:37:13.985Z,73.75
2022-11-05T13:39:54.767Z,76.75
2022-11-05T13:42:39.648Z,77.56
2022-11-05T13:45:16.696Z,75.30
2022-11-05T13:47:50.131Z,76.68
2022-11-05T13:51:07.822Z,79.52
2022-11-05T13:54:05.216Z,80.49
2022-11-05T13:56:37.880Z,79.99
2022-11-05T14:02:13.450Z,76.07
2022-11-05T14:04:46.924Z,76.25
2022-11-05T14:07:23.180Z,76.66
2022-11-05T14:09:56.753Z,78.20
2022-11-05T14:12:31.103Z,79.14
2022-11-05T14:15:05.187Z,78.88
2022-11-05T14:17:56.424Z,77.89
2022-11-05T14:20:41.855Z,77.43
2022-11-05T14:23:17.580Z,77.23
2022-11-05T14:28:35.491Z,79.42
2022-11-05T14:31:02.923Z,79.76
2022-11-05T14:33:38.079Z,80.26
2022-11-05T14:36:30.412Z,79.29
2022-11-05T14:39:12.201Z,79.74
2022-11-05T14:42:14.698Z,80.18
2022-11-05T14:45:20.088Z,80.64
2022-11-05T14:47:56.144Z,80.82
2022-11-05T14:50:31.026Z,80.72
2022-11-05T14:53:03.121Z,80.50
2022-11-05T14:56:07.805Z,80.39
2022-11-05T14:59:21.143Z,80.07
2022-11-05T15:02:01.131Z,78.30
2022-11-05T15:04:33.547Z,79.97
2022-11-05T15:07:02.204Z,80.52
2022-11-05T15:09:53.124Z,80.27
2022-11-05T15:12:32.511Z,79.79
2022-11-05T15:15:01.087Z,79.59
2022-11-05T15:17:30.141Z,79.53
2022-11-05T15:20:13.574Z,79.60
2022-11-05T15:22:43.641Z,78.80
2022-11-05T15:25:28.566Z,79.47
2022-11-05T15:27:57.986Z,78.68
2022-11-05T15:30:24.744Z,78.95
2022-11-05T15:32:52.143Z,78.50
2022-11-05T15:35:27.259Z,78.92
2022-11-05T15:38:01.837Z,78.11
2022-11-05T15:40:32.468Z,78.59
2022-11-05T15:43:22.149Z,78.15
2022-11-05T15:46:03.263Z,78.16
2022-11-05T15:48:30.149Z,77.93
2022-11-05T15:50:57.269Z,78.05
2022-11-05T15:56:58.893Z,77.02
2022-11-05T15:59:27.455Z,77.94
2022-11-05T16:02:34.588Z,78.40
2022-11-05T16:05:09.466Z,78.87
2022-11-05T16:07:46.301Z,79.50
2022-11-05T16:10:27.935Z,79.51
2022-11-05T16:12:54.401Z,80.16
2022-11-05T16:15:32.437Z,79.24
2022-11-05T16:18:00.243Z,78.56
2022-11-05T16:20:28.647Z,79.34
2022-11-05T16:22:58.366Z,79.63
2022-11-05T16:25:37.694Z,80.18
2022-11-05T16:28:06.454Z,79.93
2022-11-05T16:30:32.906Z,80.10
2022-11-05T16:33:05.016Z,79.34
2022-11-05T16:35:31.489Z,79.27
2022-11-05T16:38:00.927Z,79.26
2022-11-05T16:40:27.492Z,78.85
2022-11-05T16:42:54.088Z,78.47
2022-11-05T16:45:23.926Z,78.42
2022-11-05T16:47:50.868Z,78.51
2022-11-05T16:50:26.710Z,78.45
2022-11-05T16:52:53.511Z,78.03
2022-11-05T16:55:20.466Z,78.09
2022-11-05T16:57:50.945Z,78.71
2022-11-05T17:00:20.100Z,78.79
2022-11-05T17:02:47.074Z,78.85
2022-11-05T17:05:30.449Z,79.23
2022-11-05T17:07:57.935Z,78.79
2022-11-05T17:10:25.546Z,78.70
2022-11-05T17:12:52.201Z,78.03
2022-11-05T17:15:25.034Z,78.73
2022-11-05T17:17:53.579Z,77.60
2022-11-05T17:20:27.543Z,78.66
2022-11-05T17:22:54.740Z,78.77
2022-11-05T17:25:21.505Z,78.89
2022-11-05T17:27:48.448Z,78.68
2022-11-05T17:30:15.197Z,78.96
2022-11-05T17:32:41.810Z,79.43
2022-11-05T17:35:08.807Z,79.26
2022-11-05T17:37:35.319Z,79.37
2022-11-05T17:40:03.944Z,78.80
2022-11-05T17:42:30.391Z,78.84
2022-11-05T17:44:57.317Z,78.86
2022-11-05T17:47:25.556Z,78.97
2022-11-05T17:49:51.990Z,79.40
2022-11-05T17:52:18.434Z,79.22
2022-11-05T17:54:44.863Z,78.89
2022-11-05T17:57:11.341Z,78.48
2022-11-05T17:59:37.777Z,78.70
2022-11-05T18:02:04.585Z,78.12
2022-11-05T18:04:32.419Z,79.01
2022-11-05T18:06:58.845Z,78.87
2022-11-05T18:09:25.321Z,79.00
2022-11-05T18:11:51.763Z,79.84
2022-11-05T18:14:23.752Z,79.16
2022-11-05T18:16:51.648Z,79.50
2022-11-05T18:19:18.131Z,79.17
2022-11-05T18:21:44.602Z,79.25
2022-11-05T18:24:11.047Z,79.41
2022-11-05T18:26:37.466Z,78.92
2022-11-05T18:29:05.770Z,79.42
2022-11-05T18:31:32.389Z,78.96
2022-11-05T18:33:59.929Z,79.69
2022-11-05T18:36:28.199Z,78.97
2022-11-05T18:38:56.686Z,79.22
2022-11-05T18:41:23.449Z,79.34
2022-11-05T18:43:50.269Z,79.25
2022-11-05T18:46:36.377Z,79.49
2022-11-05T18:49:03.661Z,79.53
2022-11-05T18:51:30.481Z,79.07
2022-11-05T18:53:58.384Z,79.04
2022-11-05T18:56:24.921Z,79.68
2022-11-05T18:59:14.580Z,78.19
2022-11-05T19:01:40.484Z,79.48
2022-11-05T19:04:07.156Z,79.40
2022-11-05T19:06:33.925Z,77.88
2022-11-05T19:09:00.346Z,79.98
2022-11-05T19:11:27.012Z,79.76
2022-11-05T19:13:53.859Z,79.34
2022-11-05T19:16:27.074Z,79.91
2022-11-05T19:18:53.598Z,80.30
2022-11-05T19:21:23.025Z,80.66
2022-11-05T19:23:50.568Z,79.69
2022-11-05T19:26:25.633Z,79.17
2022-11-05T19:28:55.086Z,79.88
2022-11-05T19:31:23.545Z,80.29
2022-11-05T19:33:51.173Z,80.08
2022-11-05T19:36:20.551Z,80.15
2022-11-05T19:38:49.538Z,80.15
2022-11-05T19:41:18.303Z,80.41
2022-11-05T19:43:45.326Z,80.28
2022-11-05T19:46:15.007Z,79.87
2022-11-05T19:48:42.138Z,79.85
2022-11-05T19:51:14.021Z,80.21
2022-11-05T19:53:40.897Z,80.23
2022-11-05T19:56:18.950Z,80.17
2022-11-05T19:58:45.719Z,80.21
2022-11-05T20:01:14.249Z,79.73
2022-11-05T20:03:41.710Z,80.54
2022-11-05T20:06:10.892Z,79.76
2022-11-05T20:08:59.403Z,80.11
2022-11-05T20:11:25.128Z,79.92
2022-11-05T20:13:51.587Z,80.39
2022-11-05T20:16:23.548Z,80.45
2022-11-05T20:18:50.532Z,80.18
2022-11-05T20:21:17.562Z,80.30
2022-11-05T20:23:44.301Z,80.16
2022-11-05T20:26:11.641Z,79.91
2022-11-05T20:28:39.716Z,79.95
2022-11-05T20:31:08.322Z,80.21
2022-11-05T20:33:34.820Z,80.06
2022-11-05T20:36:04.658Z,79.93
2022-11-05T20:38:31.655Z,79.07
2022-11-05T20:40:58.786Z,79.80
2022-11-05T20:43:30.162Z,80.03
2022-11-05T20:45:58.404Z,79.61
2022-11-05T20:48:24.868Z,80.30
2022-11-05T20:50:51.322Z,80.52
2022-11-05T20:53:17.929Z,79.90
2022-11-05T20:55:47.417Z,80.08
2022-11-05T20:58:15.846Z,79.89
2022-11-05T21:00:49.960Z,80.01
2022-11-05T21:03:16.437Z,80.95
2022-11-05T21:05:54.271Z,81.25
2022-11-05T21:08:22.373Z,81.01
2022-11-05T21:10:51.398Z,80.77
2022-11-05T21:13:18.279Z,80.78
2022-11-05T21:15:52.295Z,81.21
2022-11-05T21:18:21.178Z,81.12
2022-11-05T21:20:47.764Z,80.90
2022-11-05T21:23:15.410Z,80.82
2022-11-05T21:25:43.181Z,81.08
2022-11-05T21:28:11.555Z,81.75
2022-11-05T21:30:42.000Z,81.51
2022-11-05T21:33:09.112Z,81.84
2022-11-05T21:35:39.935Z,81.23
2022-11-05T21:38:06.384Z,81.57
2022-11-05T21:40:32.851Z,81.46
2022-11-05T21:42:59.276Z,80.69
2022-11-05T21:45:26.035Z,80.83
2022-11-05T21:47:52.474Z,80.78
2022-11-05T21:50:21.877Z,80.29
2022-11-05T21:53:07.275Z,80.43
2022-11-05T21:55:52.144Z,80.14
2022-11-05T21:58:37.618Z,79.73
2022-11-05T22:01:04.163Z,80.26
2022-11-05T22:03:30.612Z,80.54
2022-11-05T22:05:57.272Z,80.39
2022-11-05T22:08:23.864Z,80.08
2022-11-05T22:10:50.304Z,80.40
2022-11-05T22:13:16.720Z,80.50
2022-11-05T22:15:43.162Z,80.12
2022-11-05T22:18:09.769Z,80.18
2022-11-05T22:20:39.695Z,80.61
2022-11-05T22:23:10.876Z,80.77
2022-11-05T22:25:37.882Z,81.37
2022-11-05T22:28:04.510Z,81.40
2022-11-05T22:30:34.564Z,81.54
2022-11-05T22:33:01.432Z,81.52
2022-11-05T22:35:28.873Z,81.30
2022-11-05T22:37:55.684Z,81.76
2022-11-05T22:40:23.940Z,81.76
2022-11-05T22:42:50.752Z,82.10
2022-11-05T22:45:17.189Z,82.36
2022-11-05T22:47:43.744Z,82.86
2022-11-05T22:50:10.442Z,82.70
2022-11-05T22:52:36.909Z,82.62
2022-11-05T22:55:06.036Z,82.54
2022-11-05T22:57:32.473Z,82.47
2022-11-05T22:59:58.889Z,82.76
2022-11-05T23:02:25.443Z,82.91
2022-11-05T23:04:52.191Z,82.78
2022-11-05T23:07:37.356Z,82.84
2022-11-05T23:10:22.748Z,82.85
2022-11-05T23:12:49.253Z,82.37
2022-11-05T23:15:34.238Z,82.36
2022-11-05T23:18:19.734Z,82.03
2022-11-05T23:21:04.484Z,82.34
2022-11-05T23:23:49.364Z,82.13
2022-11-05T23:26:34.107Z,82.45
2022-11-05T23:29:00.560Z,82.05
2022-11-05T23:31:45.482Z,82.11
2022-11-05T23:34:11.944Z,82.00
2022-11-05T23:36:56.764Z,82.46
2022-11-05T23:39:23.201Z,82.42
2022-11-05T23:42:08.030Z,82.33
2022-11-05T23:44:52.975Z,83.31
2022-11-05T23:47:37.829Z,83.13
2022-11-05T23:50:04.482Z,83.17
2022-11-05T23:52:30.917Z,83.76
2022-11-05T23:54:57.324Z,84.08
2022-11-05T23:57:23.769Z,83.96
2022-11-05T23:59:50.225Z,83.46
